Flight Track Log - Related Links

Times and Time Zones

All times are in EDT time to prevent confusion due to time zone crossing. See the N82423 flight status page for this flight to view local times or setup timezone preferences in your user account.

Time Position Orientation Groundspeed Altitude Reporting Facility
EDT Latitude Longitude Course Direction KTS MPH feet Rate Location/Type
Sat 05:57:13 PM 42.4344 -85.3136 North 119 137 5,500  Level Chicago Center
Sat 05:58:14 PM 42.4725 -85.3031 12° North 134 154 5,600 98 Climbing Chicago Center
Sat 05:59:16 PM 42.5128 -85.2958 North 143 165 5,700  Climbing Chicago Center
Sat 06:00:18 PM 42.5561 -85.2892 North 154 177 5,600 -97 Descending Chicago Center
Sat 06:01:00 PM 42.3144 -85.2490 North  Level Estimated
Sat 06:01:20 PM 42.6075 -85.2831 North 155 178 5,500  Level Chicago Center
Sat 06:02:00 PM 42.3556 -85.2427 North  Level FlightAware Approximate
Sat 06:02:22 PM 42.6500 -85.2764 North 155 178 5,600  Level Chicago Center
Sat 06:03:24 PM 42.6906 -85.2717 North 150 173 5,600  Level Chicago Center
Sat 06:04:26 PM 42.7303 -85.2633 North 146 168 5,600  Level Chicago Center
Sat 06:05:27 PM 42.7722 -85.2589 North 149 171 5,600  Level Chicago Center
Sat 06:06:29 PM 42.8156 -85.2547 North 155 178 5,600  Level Chicago Center
Sat 06:07:31 PM 42.8650 -85.2514 North 151 174 5,600  Level Chicago Center
Sat 06:08:33 PM 42.9067 -85.2428 North 150 173 5,600  Level Chicago Center
Sat 06:09:34 PM 42.9500 -85.2364 North 156 180 5,600  Level Chicago Center
Sat 06:10:36 PM 42.9914 -85.2314 North 152 175 5,600  Level Chicago Center
Sat 06:11:38 PM 43.0325 -85.2247 North 149 171 5,600  Level Chicago Center
Sat 06:12:40 PM 43.0739 -85.2189 North 150 173 5,600  Level Chicago Center
Sat 06:13:41 PM 43.1233 -85.2083 North 151 174 5,600  Level Chicago Center
Sat 06:14:43 PM 43.1653 -85.1981 10° North 152 175 5,600  Level Chicago Center
Sat 06:15:45 PM 43.2061 -85.1872 11° North 152 175 5,600  Level Chicago Center
Sat 06:16:47 PM 43.2478 -85.1775 10° North 151 174 5,600  Level Chicago Center
Sat 06:17:48 PM 43.2886 -85.1672 10° North 150 173 5,600  Level Chicago Center
Sat 06:18:50 PM 43.3303 -85.1558 11° North 151 174 5,600  Level Chicago Center
Sat 06:19:52 PM 43.3711 -85.1478 North 150 173 5,600  Level Chicago Center
Sat 06:20:21 PM 43.3961 -85.1431 North 150 173 5,600  Level Minneapolis Center
Sat 06:21:23 PM 43.4381 -85.1367 North 151 174 5,600 -49 Level Minneapolis Center
Sat 06:22:24 PM 43.4803 -85.1311 North 152 175 5,500 -49 Descending Minneapolis Center
Sat 06:23:26 PM 43.5219 -85.1261 North 151 174 5,500 49 Level Minneapolis Center
Sat 06:24:27 PM 43.5644 -85.1214 North 152 175 5,600 49 Climbing Minneapolis Center
Sat 06:25:28 PM 43.6067 -85.1178 North 152 175 5,600  Level Minneapolis Center
Sat 06:26:30 PM 43.6583 -85.1119 North 154 177 5,600 -49 Level Minneapolis Center
Sat 06:27:31 PM 43.6997 -85.1069 North 153 176 5,500  Descending Minneapolis Center
Sat 06:28:33 PM 43.7406 -85.1031 North 151 174 5,600 48 Climbing Minneapolis Center
Sat 06:29:35 PM 43.7825 -85.0975 North 150 173 5,600  Level Minneapolis Center
Sat 06:30:36 PM 43.8233 -85.0922 North 150 173 5,600  Level Minneapolis Center
Sat 06:31:37 PM 43.8628 -85.0708 21° North 151 174 5,600  Level Minneapolis Center
Sat 06:32:39 PM 43.8978 -85.0764 353° North 163 188 5,600  Level Minneapolis Center
Sat 06:33:40 PM 43.9478 -85.0714 North 154 177 5,600  Level Minneapolis Center
Sat 06:34:42 PM 43.9894 -85.0653 North 153 176 5,600  Level Minneapolis Center
Sat 06:35:43 PM 44.0314 -85.0572 North 151 174 5,600 -49 Level Minneapolis Center
Sat 06:36:45 PM 44.0728 -85.0508 North 151 174 5,500  Descending Minneapolis Center
Sat 06:37:46 PM 44.1142 -85.0428 North 151 174 5,600 49 Climbing Minneapolis Center
Sat 06:38:48 PM 44.1556 -85.0364 North 150 173 5,600  Level Minneapolis Center
Sat 06:39:49 PM 44.1992 -85.0294 North 154 177 5,600  Level Minneapolis Center
Sat 06:40:51 PM 44.2492 -85.0211 North 153 176 5,600  Level Minneapolis Center
Sat 06:41:52 PM 44.2922 -85.0144 North 154 177 5,600  Level Minneapolis Center
Sat 06:42:54 PM 44.3347 -85.0067 North 155 178 5,600 -49 Level Minneapolis Center
Sat 06:43:55 PM 44.3769 -84.9989 North 154 177 5,500 -49 Descending Minneapolis Center
Sat 06:44:57 PM 44.4203 -84.9919 North 155 178 5,500 44 Level Minneapolis Center
Sat 06:46:10 PM 44.4625 -84.9858 North 155 178 5,600 44 Climbing Minneapolis Center
Sat 06:47:12 PM 44.5114 -84.9772 North 152 175 5,600  Level Minneapolis Center
Sat 06:48:13 PM 44.5550 -84.9697 North 153 176 5,600  Level Minneapolis Center
Sat 06:49:15 PM 44.6058 -84.9608 North 154 177 5,600  Level Minneapolis Center
Sat 06:50:16 PM 44.6489 -84.9550 North 154 177 5,600  Level Minneapolis Center
Sat 06:51:18 PM 44.6925 -84.9481 North 156 180 5,600 -49 Level Minneapolis Center
Sat 06:52:19 PM 44.7358 -84.9400 North 157 181 5,500  Descending Minneapolis Center
Sat 06:53:20 PM 44.7781 -84.9322 North 156 180 5,600 49 Climbing Minneapolis Center
Sat 06:54:22 PM 44.8203 -84.9256 North 155 178 5,600  Level Minneapolis Center
Sat 06:55:23 PM 44.8617 -84.9189 North 153 176 5,600  Level Minneapolis Center
Sat 06:56:25 PM 44.9031 -84.9122 North 151 174 5,600  Level Minneapolis Center
Sat 06:57:27 PM 44.9522 -84.9044 North 150 173 5,600  Level Minneapolis Center
Sat 06:58:28 PM 44.9947 -84.8958 North 151 174 5,600 -49 Level Minneapolis Center
Sat 06:59:30 PM 45.0353 -84.8867 North 151 174 5,500 -49 Descending Minneapolis Center
Sat 07:00:31 PM 45.0736 -84.8775 10° North 147 169 5,500 49 Level Minneapolis Center
Sat 07:01:33 PM 45.1117 -84.8681 10° North 144 166 5,600 49 Climbing Minneapolis Center
Sat 07:02:34 PM 45.1511 -84.8642 North 142 163 5,600 -49 Level Minneapolis Center
Sat 07:03:35 PM 45.1844 -84.8644 360° North 143 165 5,500 -49 Descending Minneapolis Center
Sat 07:04:37 PM 45.2431 -84.8597 North 148 170 5,500 48 Level Minneapolis Center
Sat 07:05:39 PM 45.2847 -84.8458 13° North 151 174 5,600  Climbing Minneapolis Center
Sat 07:06:40 PM 45.3253 -84.8306 15° North 152 175 5,500 -49 Descending Minneapolis Center
Sat 07:07:42 PM 45.3664 -84.8250 North 150 173 5,500  Level Minneapolis Center
Sat 07:09:00 PM 45.4192 -84.8162 North  Level FlightAware Approximate
Sat 07:16:00 PM 45.5667 -84.7833 13° North  Level FlightAware Approximate
Sat 07:17:00 PM 45.5709 -84.7967 13° North  Level Estimated
Sat 07:18:00 PM 45.5709 -84.7967 13° North  Level Estimated
Sat 07:19:00 PM 45.5709 -84.7967 13° North  Level Estimated
Sat 07:20:00 PM 45.5709 -84.7967 13° North  Level Estimated

Login

Don't have an account? Register now (free) for customized features, flight alerts, and more!